Aeroporto :
LOGIN :

Iscrizione | Disclaimer

   EN    FR    IT 

 










Sommario :    VFR   VFR Marginale   IFR   IFR Intensivo   IFR Molto Intensivo
Visibilità : 
Base nubi : 
>= 8 km
>= 3000ft
5 / 8 km
1000 / 3000 ft
1500m / 5 km
500 / 1000 ft
800 / 1500m
200 / 500 ft
< 800m
< 200 ft
Simboli :   Temporali  Nebbia  Neve Forte  Precipitazioni Forti  Vento > 20 kt
SIGMETs :   Varie  Temporali  Ghiacco  Turbolenza  Onda orograficha  Ceneri Vulcaniche







- Altitudine del aeroporto : 129 ft
- Codice IATA : ZCN


ETHC - Celle

ULTIMO METAR :
  • 211020Z 25010KT 9999 BKN020 12/07 Q1034 WHT WHT BECMG BLU

METARs OBSOLETI :
  • 210920Z 24011KT 8000 BKN020 12/07 Q1034 WHT WHT BECMG BLU
  • 210820Z 23010KT 9000 BKN024 11/07 Q1034 WHT WHT BECMG BLU

TAF TAF ETHC
Valido dal 21 a 09 ore il 21 a 18 ore UTC


210815Z 2109/2118 25008KT 9000 NSW BKN025
TEMPO 2109/2112 23005KT 6000 NSW BKN015
Nessun NOTAM noto per questo aeroporto.



MetMap, La meteo Aeronautica in un colpo d'occhio ! - Copyright ORBIFLY Dicembre 2007 - Disclaimer

ORBIFLY MET'MAP TEAM :

Programmazione e sviluppo : Alexandra Zaïnal
Concezione e sviluppo : Baudouin d'Aumeries
Co-Programmazione e sviluppo : Marc-Olivier Méhu
Supporto tecnico e logistico : Manuel Goepfert
Aiuto per la traduzione : Arnaldo La Scala

Contatto : metmap@orbifly.com




FONTI E CREDITI :

   NOAA